createdAt,value
2023-01-03T00:01:15.857Z,102062.78
2023-01-03T00:04:02.241Z,102047.25
2023-01-03T00:06:50.099Z,102046.41
2023-01-03T00:09:35.265Z,102047.25
2023-01-03T00:12:30.785Z,102045.50
2023-01-03T00:15:16.820Z,102029.22
2023-01-03T00:18:02.243Z,102030.03
2023-01-03T00:20:47.449Z,101994.03
2023-01-03T00:23:32.664Z,102025.78
2023-01-03T00:26:17.849Z,102035.25
2023-01-03T00:29:03.516Z,102043.06
2023-01-03T00:31:48.945Z,102025.84
2023-01-03T00:34:35.322Z,102023.25
2023-01-03T00:37:20.495Z,102031.81
2023-01-03T00:40:05.827Z,102021.53
2023-01-03T00:43:09.313Z,101995.81
2023-01-03T00:45:54.699Z,102014.66
2023-01-03T00:48:40.525Z,102019.78
2023-01-03T00:51:28.460Z,102013.78
2023-01-03T00:54:14.774Z,102018.00
2023-01-03T00:57:00.040Z,102023.06
2023-01-03T00:59:45.344Z,102030.69
2023-01-03T01:02:30.862Z,102030.69
2023-01-03T01:05:16.479Z,102004.13
2023-01-03T01:08:01.323Z,101998.88
2023-01-03T01:11:01.817Z,102020.25
2023-01-03T01:13:47.916Z,101992.84
2023-01-03T01:16:33.261Z,102005.63
2023-01-03T01:19:21.619Z,102000.41
2023-01-03T01:22:07.232Z,102003.00
2023-01-03T01:24:52.418Z,102000.50
2023-01-03T01:27:37.446Z,102002.25
2023-01-03T01:30:22.450Z,101991.09
2023-01-03T01:33:07.420Z,101999.72
2023-01-03T01:35:52.474Z,102007.50
2023-01-03T01:38:37.353Z,101999.78
2023-01-03T01:41:41.280Z,101998.75
2023-01-03T01:44:48.163Z,102003.78
2023-01-03T01:47:35.984Z,102002.88
2023-01-03T01:50:32.981Z,101994.16
2023-01-03T01:53:34.542Z,101991.69
2023-01-03T01:56:23.666Z,101972.78
2023-01-03T01:59:11.226Z,101988.97
2023-01-03T02:01:56.273Z,101980.31
2023-01-03T02:04:41.498Z,101990.53
2023-01-03T02:07:26.522Z,101998.31
2023-01-03T02:10:11.733Z,101990.50
2023-01-03T02:13:07.766Z,101987.91
2023-01-03T02:16:19.303Z,101985.38
2023-01-03T02:19:44.568Z,101985.31
2023-01-03T02:23:16.969Z,101986.28
2023-01-03T02:26:04.989Z,101963.09
2023-01-03T02:29:26.344Z,101992.25
2023-01-03T02:32:11.342Z,101997.41
2023-01-03T02:35:28.960Z,101984.53
2023-01-03T02:38:38.142Z,101987.06
2023-01-03T02:41:29.751Z,101984.34
2023-01-03T02:44:21.819Z,101980.84
2023-01-03T02:47:11.999Z,101980.03
2023-01-03T02:50:01.593Z,101984.41
2023-01-03T02:52:50.073Z,101977.50
2023-01-03T02:55:38.025Z,101937.22
2023-01-03T02:58:28.350Z,101957.63
2023-01-03T03:01:16.914Z,101959.34
2023-01-03T03:04:03.510Z,101961.84
2023-01-03T03:07:04.378Z,101961.78
2023-01-03T03:10:08.366Z,101944.53
2023-01-03T03:13:13.229Z,101963.38
2023-01-03T03:16:06.696Z,101958.03
2023-01-03T03:19:03.123Z,101951.16
2023-01-03T03:22:06.998Z,101945.00
2023-01-03T03:24:54.511Z,101950.97
2023-01-03T03:28:01.792Z,101944.91
2023-01-03T03:30:51.035Z,101940.53
2023-01-03T03:33:42.295Z,101944.91
2023-01-03T03:36:54.027Z,101939.72
2023-01-03T03:39:57.614Z,101944.09
2023-01-03T03:43:11.265Z,101947.50
2023-01-03T03:46:06.828Z,101945.78
2023-01-03T03:49:21.181Z,101927.06
2023-01-03T03:52:11.769Z,101940.78
2023-01-03T03:55:06.728Z,101945.97
2023-01-03T03:57:58.735Z,101945.13
2023-01-03T04:00:46.321Z,101923.56
2023-01-03T04:03:32.840Z,101912.50
2023-01-03T04:06:28.176Z,101942.53
2023-01-03T04:09:14.039Z,101909.97
2023-01-03T04:11:59.167Z,101933.88
2023-01-03T04:14:44.376Z,101911.66
2023-01-03T04:17:29.813Z,101927.00
2023-01-03T04:20:15.296Z,101925.25
2023-01-03T04:23:00.697Z,101930.28
2023-01-03T04:25:45.784Z,101921.53
2023-01-03T04:28:30.980Z,101912.03
2023-01-03T04:31:16.090Z,101918.81
2023-01-03T04:34:01.125Z,101926.59
2023-01-03T04:36:46.295Z,101928.19
2023-01-03T04:39:33.604Z,101926.38
2023-01-03T04:42:37.554Z,101892.34
2023-01-03T04:45:22.833Z,101931.63
2023-01-03T04:48:08.069Z,101924.81
2023-01-03T04:50:59.513Z,101933.38
2023-01-03T04:53:44.725Z,101904.16
2023-01-03T04:56:32.149Z,101930.72
2023-01-03T04:59:17.178Z,101931.50
2023-01-03T05:02:02.367Z,101917.06
2023-01-03T05:04:47.459Z,101917.91
2023-01-03T05:07:32.900Z,101944.50
2023-01-03T05:10:17.972Z,101929.94
2023-01-03T05:13:03.259Z,101937.50
2023-01-03T05:15:48.708Z,101934.97
2023-01-03T05:18:34.508Z,101933.38
2023-01-03T05:21:40.452Z,101906.06
2023-01-03T05:24:44.130Z,101911.31
2023-01-03T05:27:29.447Z,101923.28
2023-01-03T05:30:14.732Z,101931.84
2023-01-03T05:32:59.887Z,101920.72
2023-01-03T05:35:47.370Z,101914.97
2023-01-03T05:38:32.589Z,101927.78
2023-01-03T05:41:40.537Z,101919.34
2023-01-03T05:44:30.499Z,101932.38
2023-01-03T05:47:15.594Z,101931.53
2023-01-03T05:50:00.685Z,101917.75
2023-01-03T05:52:45.720Z,101932.94
2023-01-03T05:55:30.733Z,101927.84
2023-01-03T05:58:15.661Z,101938.13
2023-01-03T06:01:08.348Z,101909.84
2023-01-03T06:03:53.643Z,101923.41
2023-01-03T06:06:38.682Z,101932.81
2023-01-03T06:09:23.966Z,101890.03
2023-01-03T06:12:09.109Z,101911.34
2023-01-03T06:14:53.972Z,101919.00
2023-01-03T06:17:57.879Z,101905.31
2023-01-03T06:20:43.409Z,101926.66
2023-01-03T06:23:28.490Z,101924.81
2023-01-03T06:26:18.888Z,101912.69
2023-01-03T06:29:05.421Z,101915.31
2023-01-03T06:31:50.731Z,101923.94
2023-01-03T06:34:35.964Z,101924.13
2023-01-03T06:37:20.799Z,101924.81
2023-01-03T06:40:07.052Z,101928.25
2023-01-03T06:42:52.373Z,101924.81
2023-01-03T06:45:56.072Z,101926.59
2023-01-03T06:49:00.055Z,101926.53
2023-01-03T06:52:07.073Z,101918.78
2023-01-03T06:54:53.744Z,101883.06
2023-01-03T06:57:38.570Z,101926.81
2023-01-03T07:00:23.633Z,101925.25
2023-01-03T07:03:11.415Z,101931.91
2023-01-03T07:05:56.952Z,101924.22
2023-01-03T07:08:47.928Z,101904.53
2023-01-03T07:11:33.983Z,101925.06
2023-01-03T07:14:19.061Z,101936.22
2023-01-03T07:17:04.396Z,101927.69
2023-01-03T07:19:49.332Z,101930.34
2023-01-03T07:22:34.588Z,101931.91
2023-01-03T07:25:20.571Z,101929.19
2023-01-03T07:28:08.194Z,101930.78
2023-01-03T07:31:04.596Z,101926.25
2023-01-03T07:33:49.709Z,101917.31
2023-01-03T07:36:35.079Z,101925.72
2023-01-03T07:39:20.351Z,101924.91
2023-01-03T07:42:24.248Z,101941.63
2023-01-03T07:45:09.688Z,101935.84
2023-01-03T07:47:54.608Z,101932.06
2023-01-03T07:50:40.356Z,101909.16
2023-01-03T07:53:25.661Z,101920.97
2023-01-03T07:56:13.750Z,101925.72
2023-01-03T07:58:59.680Z,101940.84
2023-01-03T08:01:45.061Z,101930.09
2023-01-03T08:04:30.442Z,101928.53
2023-01-03T08:07:15.974Z,101906.06
2023-01-03T08:10:20.180Z,101918.97
2023-01-03T08:13:18.671Z,101929.66
2023-01-03T08:16:04.565Z,101927.50
2023-01-03T08:18:49.595Z,101930.84
2023-01-03T08:21:35.089Z,101924.59
2023-01-03T08:24:20.237Z,101926.91
2023-01-03T08:27:06.267Z,101907.91
2023-01-03T08:29:51.415Z,101928.03
2023-01-03T08:32:37.599Z,101915.72
2023-01-03T08:35:27.214Z,101918.06
2023-01-03T08:38:19.365Z,101924.78
2023-01-03T08:41:06.902Z,101909.72
2023-01-03T08:43:53.135Z,101913.91
2023-01-03T08:46:45.427Z,101915.41
2023-01-03T08:49:31.559Z,101910.19
2023-01-03T08:52:16.879Z,101921.16
2023-01-03T08:55:02.688Z,101928.63
2023-01-03T08:57:48.045Z,101931.13
2023-01-03T09:00:32.906Z,101931.91
2023-01-03T09:03:19.127Z,101929.31
2023-01-03T09:06:04.980Z,101915.47
2023-01-03T09:08:49.809Z,101913.44
2023-01-03T09:11:35.457Z,101926.00
2023-01-03T09:14:20.641Z,101916.97
2023-01-03T09:17:05.920Z,101919.47
2023-01-03T09:19:53.395Z,101920.97
2023-01-03T09:22:38.660Z,101919.09
2023-01-03T09:25:23.826Z,101920.56
2023-01-03T09:28:08.837Z,101902.53
2023-01-03T09:30:54.205Z,101898.97
2023-01-03T09:33:39.265Z,101905.41
2023-01-03T09:36:24.615Z,101901.28
2023-01-03T09:39:09.946Z,101913.03
2023-01-03T09:42:13.810Z,101916.44
2023-01-03T09:45:00.437Z,101924.63
2023-01-03T09:47:46.140Z,101920.94
2023-01-03T09:51:14.602Z,101917.66
2023-01-03T09:54:01.999Z,101919.00
2023-01-03T09:57:05.895Z,101917.25
2023-01-03T10:00:09.668Z,101921.50
2023-01-03T10:03:50.473Z,101931.81
2023-01-03T10:06:54.300Z,101924.66
2023-01-03T10:10:00.972Z,101922.56
2023-01-03T10:12:48.956Z,101914.72
2023-01-03T10:15:50.436Z,101917.16
2023-01-03T10:18:40.231Z,101930.97
2023-01-03T10:21:43.093Z,101903.38
2023-01-03T10:24:37.210Z,101921.06
2023-01-03T10:27:25.995Z,101916.56
2023-01-03T10:30:19.775Z,101910.22
2023-01-03T10:33:39.443Z,101916.63
2023-01-03T10:36:24.331Z,101901.66
2023-01-03T10:39:11.276Z,101904.78
2023-01-03T10:42:00.152Z,101896.75
2023-01-03T10:45:04.130Z,101897.34
2023-01-03T10:48:01.818Z,101895.44
2023-01-03T10:50:47.105Z,101898.56
2023-01-03T10:53:38.549Z,101892.41
2023-01-03T10:56:25.568Z,101889.81
2023-01-03T10:59:30.733Z,101871.00
2023-01-03T11:02:18.458Z,101869.09
2023-01-03T11:05:13.260Z,101881.56
2023-01-03T11:08:01.966Z,101875.34
2023-01-03T11:10:57.782Z,101879.59
2023-01-03T11:13:43.277Z,101854.19
2023-01-03T11:16:32.417Z,101866.22
2023-01-03T11:19:18.688Z,101856.59
2023-01-03T11:22:10.204Z,101825.16
2023-01-03T11:25:28.408Z,101846.28
2023-01-03T11:28:41.440Z,101852.31
2023-01-03T11:31:47.867Z,101842.69
2023-01-03T11:34:54.961Z,101821.16
2023-01-03T11:37:50.655Z,101815.09
2023-01-03T11:40:57.657Z,101801.97
2023-01-03T11:44:07.452Z,101823.38
2023-01-03T11:47:22.335Z,101827.81
2023-01-03T11:50:10.425Z,101813.81
2023-01-03T11:53:14.274Z,101799.00
2023-01-03T11:56:53.028Z,101792.34
2023-01-03T11:59:57.176Z,101787.75
2023-01-03T12:02:52.622Z,101764.63
2023-01-03T12:05:43.765Z,101765.19
2023-01-03T12:08:45.115Z,101770.47
2023-01-03T12:11:36.151Z,101755.88
2023-01-03T12:14:38.977Z,101777.44
2023-01-03T12:17:44.347Z,101758.19
2023-01-03T12:20:37.153Z,101754.72
2023-01-03T12:23:28.199Z,101742.16
2023-01-03T12:26:15.604Z,101736.16
2023-01-03T12:29:15.905Z,101759.28
2023-01-03T12:32:08.700Z,101736.78
2023-01-03T12:35:07.280Z,101730.91
2023-01-03T12:37:52.689Z,101749.72
2023-01-03T12:41:01.471Z,101738.56
2023-01-03T12:43:53.959Z,101734.16
2023-01-03T12:46:45.618Z,101732.38
2023-01-03T12:50:03.114Z,101729.88
2023-01-03T12:52:58.486Z,101725.47
2023-01-03T12:55:59.764Z,101728.16
2023-01-03T12:58:57.030Z,101718.69
2023-01-03T13:01:59.241Z,101706.53
2023-01-03T13:04:48.212Z,101708.16
2023-01-03T13:07:34.250Z,101701.16
2023-01-03T13:10:22.486Z,101701.09
2023-01-03T13:13:13.481Z,101702.00
2023-01-03T13:15:58.880Z,101696.84
2023-01-03T13:18:43.997Z,101679.38
2023-01-03T13:22:10.821Z,101677.41
2023-01-03T13:25:27.939Z,101684.31
2023-01-03T13:28:22.250Z,101667.25
2023-01-03T13:31:13.330Z,101672.94
2023-01-03T13:34:11.211Z,101673.31
2023-01-03T13:37:12.311Z,101663.63
2023-01-03T13:40:10.675Z,101656.47
2023-01-03T13:43:08.208Z,101659.25
2023-01-03T13:45:56.178Z,101646.41
2023-01-03T13:48:53.316Z,101634.63
2023-01-03T13:51:41.575Z,101635.41
2023-01-03T13:54:58.009Z,101655.84
2023-01-03T13:57:53.207Z,101643.56
2023-01-03T14:00:40.467Z,101638.31
2023-01-03T14:03:44.628Z,101644.34
2023-01-03T14:06:58.376Z,101656.47
2023-01-03T14:09:46.333Z,101619.84
2023-01-03T14:12:56.200Z,101618.13
2023-01-03T14:15:41.185Z,101615.50
2023-01-03T14:18:30.091Z,101609.16
2023-01-03T14:21:25.801Z,101586.09
2023-01-03T14:24:25.220Z,101596.09
2023-01-03T14:27:17.517Z,101585.09
2023-01-03T14:30:03.839Z,101593.41
2023-01-03T14:32:49.167Z,101581.53
2023-01-03T14:35:39.036Z,101591.63
2023-01-03T14:38:29.969Z,101581.06
2023-01-03T14:41:34.418Z,101588.06
2023-01-03T14:44:19.349Z,101580.31
2023-01-03T14:47:12.073Z,101584.56
2023-01-03T14:49:57.745Z,101581.94
2023-01-03T14:52:45.876Z,101586.31
2023-01-03T14:55:33.072Z,101591.47
2023-01-03T14:58:40.741Z,101588.91
2023-01-03T15:01:27.019Z,101574.16
2023-01-03T15:04:16.703Z,101569.69
2023-01-03T15:07:11.269Z,101583.69
2023-01-03T15:10:06.867Z,101572.47
2023-01-03T15:12:58.962Z,101557.31
2023-01-03T15:15:55.135Z,101551.94
2023-01-03T15:18:40.837Z,101558.94
2023-01-03T15:21:25.919Z,101532.47
2023-01-03T15:24:19.951Z,101551.16
2023-01-03T15:27:37.230Z,101559.41
2023-01-03T15:30:25.272Z,101541.63
2023-01-03T15:33:33.268Z,101564.63
2023-01-03T15:36:19.660Z,101557.31
2023-01-03T15:39:10.185Z,101566.31
2023-01-03T15:45:27.528Z,101559.22
2023-01-03T15:48:19.389Z,101573.09
2023-01-03T15:51:05.427Z,101543.31
2023-01-03T15:53:50.649Z,101564.31
2023-01-03T15:56:36.638Z,101568.53
2023-01-03T15:59:26.324Z,101567.53
2023-01-03T16:02:19.667Z,101536.59
2023-01-03T16:05:07.587Z,101546.75
2023-01-03T16:07:52.887Z,101527.00
2023-01-03T16:10:38.224Z,101526.06
2023-01-03T16:13:25.656Z,101519.03
2023-01-03T16:16:11.590Z,101546.66
2023-01-03T16:18:57.815Z,101537.75
2023-01-03T16:21:51.630Z,101531.66
2023-01-03T16:24:47.572Z,101522.81
2023-01-03T16:27:32.885Z,101535.91
2023-01-03T16:30:17.975Z,101515.69
2023-01-03T16:33:03.463Z,101531.25
2023-01-03T16:35:54.569Z,101529.06
2023-01-03T16:38:39.800Z,101530.41
2023-01-03T16:41:25.360Z,101522.53
2023-01-03T16:44:10.584Z,101526.78
2023-01-03T16:46:55.853Z,101510.16
2023-01-03T16:49:42.767Z,101507.44
2023-01-03T16:52:37.732Z,101502.31
2023-01-03T16:55:27.745Z,101508.28
2023-01-03T16:58:15.868Z,101471.31
2023-01-03T17:01:00.935Z,101502.16
2023-01-03T17:03:46.227Z,101493.44
2023-01-03T17:06:37.921Z,101505.59
2023-01-03T17:09:32.031Z,101483.72
2023-01-03T17:12:22.199Z,101494.97
2023-01-03T17:15:09.653Z,101467.94
2023-01-03T17:17:54.784Z,101462.72
2023-01-03T17:20:39.986Z,101455.09
2023-01-03T17:23:26.683Z,101472.84
2023-01-03T17:26:15.183Z,101475.56
2023-01-03T17:29:06.151Z,101474.78
2023-01-03T17:31:51.709Z,101459.44
2023-01-03T17:34:36.943Z,101467.09
2023-01-03T17:37:22.883Z,101455.28
2023-01-03T17:40:20.709Z,101460.03
2023-01-03T17:43:05.774Z,101452.16
2023-01-03T17:46:16.131Z,101450.38
2023-01-03T17:49:25.178Z,101446.00
2023-01-03T17:52:23.704Z,101435.53
2023-01-03T17:55:29.525Z,101430.47
2023-01-03T17:58:19.945Z,101437.38
2023-01-03T18:01:05.990Z,101422.44
2023-01-03T18:03:51.473Z,101419.81
2023-01-03T18:06:39.300Z,101392.44
2023-01-03T18:09:27.207Z,101412.91
2023-01-03T18:12:17.343Z,101425.06
2023-01-03T18:15:02.301Z,101418.16
2023-01-03T18:17:48.165Z,101425.06
2023-01-03T18:20:33.664Z,101412.91
2023-01-03T18:23:24.767Z,101410.34
2023-01-03T18:26:13.469Z,101393.28
2023-01-03T18:28:58.521Z,101391.97
2023-01-03T18:31:45.790Z,101394.81
2023-01-03T18:34:31.041Z,101391.09
2023-01-03T18:37:16.116Z,101399.53
2023-01-03T18:40:02.812Z,101390.91
2023-01-03T18:43:06.982Z,101387.28
2023-01-03T18:45:53.468Z,101366.34
2023-01-03T18:48:43.491Z,101368.97
2023-01-03T18:51:29.425Z,101377.59
2023-01-03T18:54:18.633Z,101365.25
2023-01-03T18:57:03.850Z,101368.66
2023-01-03T18:59:50.345Z,101356.47
2023-01-03T19:02:36.253Z,101353.66
2023-01-03T19:05:21.704Z,101361.53
2023-01-03T19:08:08.457Z,101358.00
2023-01-03T19:10:53.535Z,101358.84
2023-01-03T19:13:51.519Z,101329.81
2023-01-03T19:16:37.871Z,101344.06
2023-01-03T19:19:23.390Z,101340.44
2023-01-03T19:22:27.883Z,101336.38
2023-01-03T19:25:29.650Z,101348.28
2023-01-03T19:28:22.025Z,101337.88
2023-01-03T19:31:11.687Z,101335.34
2023-01-03T19:33:56.614Z,101303.97
2023-01-03T19:36:41.719Z,101340.56
2023-01-03T19:39:30.901Z,101320.81
2023-01-03T19:42:39.499Z,101317.97
2023-01-03T19:45:33.863Z,101326.16
2023-01-03T19:48:21.455Z,101276.59
2023-01-03T19:51:06.991Z,101293.63
2023-01-03T19:53:51.896Z,101288.66
2023-01-03T19:56:36.969Z,101290.56
2023-01-03T19:59:34.808Z,101302.56
2023-01-03T20:02:32.388Z,101300.34
2023-01-03T20:05:20.931Z,101285.75
2023-01-03T20:08:12.052Z,101295.13
2023-01-03T20:10:58.195Z,101274.53
2023-01-03T20:13:43.860Z,101294.16
2023-01-03T20:16:29.836Z,101250.53
2023-01-03T20:19:17.814Z,101267.72
2023-01-03T20:22:02.911Z,101264.28
2023-01-03T20:24:48.352Z,101258.91
2023-01-03T20:27:36.801Z,101265.00
2023-01-03T20:30:30.085Z,101280.44
2023-01-03T20:33:15.006Z,101246.78
2023-01-03T20:36:12.546Z,101246.59
2023-01-03T20:38:59.871Z,101254.00
2023-01-03T20:41:45.232Z,101256.34
2023-01-03T20:44:30.612Z,101246.97
2023-01-03T20:47:20.528Z,101244.69
2023-01-03T20:50:06.299Z,101251.78
2023-01-03T20:52:51.406Z,101243.66
2023-01-03T20:55:36.525Z,101241.78
2023-01-03T20:58:25.596Z,101247.69
2023-01-03T21:01:11.190Z,101227.09
2023-01-03T21:03:57.231Z,101229.63
2023-01-03T21:06:44.962Z,101230.66
2023-01-03T21:09:30.056Z,101239.38
2023-01-03T21:12:14.958Z,101239.94
2023-01-03T21:14:59.924Z,101241.59
2023-01-03T21:17:50.617Z,101234.69
2023-01-03T21:20:36.345Z,101244.88
2023-01-03T21:23:23.354Z,101234.31
2023-01-03T21:26:08.185Z,101236.72
2023-01-03T21:28:53.216Z,101211.94
2023-01-03T21:31:40.284Z,101234.59
2023-01-03T21:34:25.308Z,101224.84
2023-01-03T21:37:10.619Z,101236.06
2023-01-03T21:39:55.700Z,101228.97
2023-01-03T21:43:03.580Z,101206.88
2023-01-03T21:45:52.739Z,101221.56
2023-01-03T21:48:38.060Z,101235.88
2023-01-03T21:51:38.468Z,101237.47
2023-01-03T21:54:24.299Z,101220.63
2023-01-03T21:57:09.767Z,101217.06
2023-01-03T21:59:54.675Z,101210.13
2023-01-03T22:03:00.354Z,101219.59
2023-01-03T22:05:45.679Z,101213.78
2023-01-03T22:08:31.139Z,101225.66
2023-01-03T22:11:16.240Z,101217.53
2023-01-03T22:14:01.500Z,101216.50
2023-01-03T22:16:46.689Z,101219.00
2023-01-03T22:19:31.718Z,101207.72
2023-01-03T22:22:16.887Z,101225.91
2023-01-03T22:25:01.962Z,101225.00
2023-01-03T22:27:47.365Z,101243.25
2023-01-03T22:30:32.231Z,101237.06
2023-01-03T22:33:17.620Z,101245.69
2023-01-03T22:36:03.050Z,101252.69
2023-01-03T22:38:48.302Z,101236.53
2023-01-03T22:41:33.248Z,101257.38
2023-01-03T22:44:18.402Z,101254.75
2023-01-03T22:47:04.549Z,101261.31
2023-01-03T22:49:49.881Z,101260.41
2023-01-03T22:52:36.667Z,101271.72
2023-01-03T22:55:24.353Z,101265.66
2023-01-03T22:58:16.158Z,101253.84
2023-01-03T23:01:10.444Z,101249.16
2023-01-03T23:04:01.188Z,101263.84
2023-01-03T23:06:46.777Z,101257.66
2023-01-03T23:09:31.804Z,101239.03
2023-01-03T23:12:35.701Z,101250.38
2023-01-03T23:15:21.073Z,101262.91
2023-01-03T23:18:06.227Z,101245.31
2023-01-03T23:20:51.431Z,101259.25
2023-01-03T23:23:36.934Z,101240.13
2023-01-03T23:26:22.280Z,101247.81
2023-01-03T23:29:09.141Z,101225.91
2023-01-03T23:31:54.369Z,101209.53
2023-01-03T23:34:39.289Z,101221.22
2023-01-03T23:37:24.577Z,101215.22
2023-01-03T23:40:10.467Z,101209.75
2023-01-03T23:42:55.641Z,101210.59
2023-01-03T23:45:40.677Z,101197.47
2023-01-03T23:48:25.685Z,101186.84
2023-01-03T23:51:11.468Z,101202.84
2023-01-03T23:53:56.471Z,101203.59
2023-01-03T23:56:41.691Z,101201.81
2023-01-03T23:59:26.843Z,101214.81
